createdAt,value
2022-10-14T00:01:27.888Z,70.47
2022-10-14T00:03:57.565Z,70.55
2022-10-14T00:06:27.359Z,71.11
2022-10-14T00:08:56.101Z,71.38
2022-10-14T00:11:25.881Z,71.60
2022-10-14T00:13:56.647Z,71.36
2022-10-14T00:16:29.538Z,71.37
2022-10-14T00:18:57.880Z,71.09
2022-10-14T00:21:27.354Z,71.22
2022-10-14T00:23:55.629Z,71.68
2022-10-14T00:26:27.329Z,71.77
2022-10-14T00:28:55.989Z,71.54
2022-10-14T00:31:24.338Z,71.72
2022-10-14T00:33:53.748Z,71.88
2022-10-14T00:36:22.887Z,72.30
2022-10-14T00:38:52.116Z,72.03
2022-10-14T00:41:23.476Z,72.06
2022-10-14T00:44:01.109Z,72.24
2022-10-14T00:46:30.921Z,71.92
2022-10-14T00:49:08.960Z,71.73
2022-10-14T00:51:38.409Z,71.66
2022-10-14T00:54:06.810Z,71.79
2022-10-14T00:56:36.022Z,72.19
2022-10-14T00:59:06.027Z,72.39
2022-10-14T01:01:34.667Z,72.91
2022-10-14T01:04:04.182Z,72.63
2022-10-14T01:06:44.741Z,72.13
2022-10-14T01:09:23.072Z,71.81
2022-10-14T01:12:27.392Z,71.84
2022-10-14T01:14:59.815Z,71.50
2022-10-14T01:17:36.753Z,71.50
2022-10-14T01:20:30.767Z,71.67
2022-10-14T01:23:13.936Z,71.89
2022-10-14T01:28:53.059Z,71.71
2022-10-14T01:31:24.901Z,71.61
2022-10-14T01:33:57.791Z,71.47
2022-10-14T01:36:33.472Z,71.48
2022-10-14T01:39:08.662Z,71.20
2022-10-14T01:41:40.745Z,70.93
2022-10-14T01:44:11.419Z,70.52
2022-10-14T01:46:47.987Z,70.99
2022-10-14T01:49:21.140Z,70.81
2022-10-14T01:51:52.038Z,70.54
2022-10-14T01:54:28.429Z,70.75
2022-10-14T01:57:00.122Z,70.85
2022-10-14T01:59:30.303Z,70.32
2022-10-14T02:01:59.670Z,70.53
2022-10-14T02:04:27.691Z,70.16
2022-10-14T02:07:03.943Z,70.68
2022-10-14T02:09:41.915Z,70.78
2022-10-14T02:12:22.030Z,71.63
2022-10-14T02:15:00.710Z,71.47
2022-10-14T02:17:34.185Z,71.18
2022-10-14T02:20:09.410Z,70.85
2022-10-14T02:22:49.322Z,71.13
2022-10-14T02:25:31.169Z,71.17
2022-10-14T02:28:00.020Z,71.55
2022-10-14T02:30:30.944Z,70.79
2022-10-14T02:33:02.221Z,71.14
2022-10-14T02:35:32.410Z,71.18
2022-10-14T02:38:06.299Z,71.79
2022-10-14T02:40:39.117Z,72.21
2022-10-14T02:43:09.960Z,72.13
2022-10-14T02:45:38.657Z,72.60
2022-10-14T02:48:08.996Z,71.80
2022-10-14T02:50:38.560Z,71.71
2022-10-14T02:53:06.498Z,71.52
2022-10-14T02:55:34.346Z,71.29
2022-10-14T02:58:02.268Z,71.25
2022-10-14T03:00:30.164Z,71.16
2022-10-14T03:02:58.044Z,71.06
2022-10-14T03:05:29.022Z,70.95
2022-10-14T03:07:57.119Z,70.34
2022-10-14T03:10:27.257Z,70.95
2022-10-14T03:12:55.800Z,71.34
2022-10-14T03:15:35.211Z,70.55
2022-10-14T03:18:06.723Z,70.79
2022-10-14T03:20:44.538Z,71.09
2022-10-14T03:23:14.666Z,71.39
2022-10-14T03:25:45.314Z,71.90
2022-10-14T03:28:19.553Z,72.08
2022-10-14T03:31:11.291Z,72.27
2022-10-14T03:34:08.491Z,72.21
2022-10-14T03:36:40.259Z,71.81
2022-10-14T03:39:08.362Z,72.11
2022-10-14T03:41:47.259Z,71.87
2022-10-14T03:44:18.580Z,72.60
2022-10-14T03:47:06.523Z,73.14
2022-10-14T03:49:35.236Z,73.02
2022-10-14T03:52:13.337Z,72.76
2022-10-14T03:54:43.056Z,72.79
2022-10-14T03:57:13.092Z,73.27
2022-10-14T03:59:46.981Z,73.51
2022-10-14T04:02:15.057Z,73.16
2022-10-14T04:04:44.893Z,73.04
2022-10-14T04:07:14.285Z,72.75
2022-10-14T04:09:49.525Z,72.37
2022-10-14T04:12:17.609Z,73.00
2022-10-14T04:15:01.915Z,72.67
2022-10-14T04:17:35.704Z,72.51
2022-10-14T04:20:11.059Z,73.44
2022-10-14T04:22:40.465Z,73.92
2022-10-14T04:25:09.811Z,74.28
2022-10-14T04:27:38.595Z,74.28
2022-10-14T04:30:11.373Z,74.12
2022-10-14T04:32:50.133Z,73.95
2022-10-14T04:35:19.317Z,74.07
2022-10-14T04:37:53.977Z,73.91
2022-10-14T04:40:26.117Z,74.07
2022-10-14T04:42:58.873Z,74.46
2022-10-14T04:45:35.413Z,74.42
2022-10-14T04:48:05.028Z,74.46
2022-10-14T04:50:37.585Z,74.32
2022-10-14T04:53:36.239Z,74.68
2022-10-14T04:56:26.979Z,74.37
2022-10-14T04:59:01.805Z,74.45
2022-10-14T05:01:50.672Z,74.58
2022-10-14T05:04:18.990Z,74.82
2022-10-14T05:06:49.544Z,74.19
2022-10-14T05:09:20.865Z,74.32
2022-10-14T05:11:48.903Z,74.42
2022-10-14T05:14:21.644Z,74.38
2022-10-14T05:16:55.022Z,74.68
2022-10-14T05:19:29.143Z,74.56
2022-10-14T05:21:57.171Z,74.78
2022-10-14T05:24:33.186Z,74.68
2022-10-14T05:27:03.067Z,74.71
2022-10-14T05:29:32.204Z,74.08
2022-10-14T05:32:01.025Z,74.08
2022-10-14T05:34:37.550Z,74.03
2022-10-14T05:37:09.185Z,74.21
2022-10-14T05:39:46.566Z,74.12
2022-10-14T05:42:16.625Z,74.40
2022-10-14T05:44:45.158Z,74.29
2022-10-14T05:47:14.397Z,73.94
2022-10-14T05:49:44.604Z,73.83
2022-10-14T05:52:13.646Z,73.49
2022-10-14T05:54:41.460Z,73.89
2022-10-14T05:57:11.246Z,74.05
2022-10-14T05:59:39.074Z,73.90
2022-10-14T06:02:08.707Z,74.11
2022-10-14T06:04:39.781Z,74.23
2022-10-14T06:07:10.226Z,74.30
2022-10-14T06:09:40.125Z,74.32
2022-10-14T06:12:08.660Z,74.84
2022-10-14T06:14:38.893Z,75.14
2022-10-14T06:17:07.842Z,74.96
2022-10-14T06:19:36.031Z,74.89
2022-10-14T06:22:03.967Z,74.31
2022-10-14T06:24:31.839Z,74.05
2022-10-14T06:26:59.661Z,74.33
2022-10-14T06:29:31.281Z,74.25
2022-10-14T06:32:00.566Z,73.98
2022-10-14T06:34:28.493Z,73.86
2022-10-14T06:37:01.258Z,74.20
2022-10-14T06:39:30.174Z,74.02
2022-10-14T06:41:58.049Z,73.89
2022-10-14T06:44:25.949Z,74.19
2022-10-14T06:46:53.815Z,74.28
2022-10-14T06:49:23.041Z,74.24
2022-10-14T06:51:50.861Z,74.18
2022-10-14T06:54:18.676Z,74.40
2022-10-14T06:56:46.590Z,74.43
2022-10-14T06:59:14.535Z,74.53
2022-10-14T07:01:42.533Z,74.78
2022-10-14T07:04:10.392Z,75.11
2022-10-14T07:06:39.675Z,75.20
2022-10-14T07:09:07.683Z,75.51
2022-10-14T07:11:36.347Z,75.33
2022-10-14T07:14:04.421Z,75.74
2022-10-14T07:16:33.195Z,75.90
2022-10-14T07:19:01.058Z,75.76
2022-10-14T07:21:29.030Z,75.51
2022-10-14T07:23:58.597Z,75.56
2022-10-14T07:26:26.517Z,75.41
2022-10-14T07:28:55.508Z,75.40
2022-10-14T07:31:23.585Z,74.94
2022-10-14T07:33:51.408Z,74.68
2022-10-14T07:36:22.543Z,74.46
2022-10-14T07:38:50.978Z,74.89
2022-10-14T07:41:22.538Z,74.46
2022-10-14T07:43:52.354Z,74.40
2022-10-14T07:46:28.961Z,74.21
2022-10-14T07:48:58.032Z,74.11
2022-10-14T07:51:27.258Z,73.74
2022-10-14T07:53:56.501Z,73.73
2022-10-14T07:56:25.834Z,74.04
2022-10-14T07:58:54.108Z,73.79
2022-10-14T08:01:24.275Z,74.34
2022-10-14T08:03:52.511Z,73.78
2022-10-14T08:06:20.585Z,73.77
2022-10-14T08:08:49.032Z,73.60
2022-10-14T08:11:19.121Z,73.81
2022-10-14T08:13:48.938Z,73.91
2022-10-14T08:16:19.330Z,74.27
2022-10-14T08:18:48.187Z,74.08
2022-10-14T08:21:16.741Z,74.46
2022-10-14T08:23:44.998Z,74.30
2022-10-14T08:26:20.846Z,74.58
2022-10-14T08:28:50.949Z,74.08
2022-10-14T08:31:18.978Z,73.80
2022-10-14T08:33:46.981Z,73.79
2022-10-14T08:36:15.905Z,73.96
2022-10-14T08:38:43.897Z,74.09
2022-10-14T08:41:26.792Z,74.20
2022-10-14T08:44:08.985Z,73.92
2022-10-14T08:46:40.532Z,73.93
2022-10-14T08:49:16.092Z,73.48
2022-10-14T08:51:47.515Z,73.51
2022-10-14T08:54:23.720Z,73.34
2022-10-14T08:56:51.658Z,73.04
2022-10-14T08:59:23.201Z,73.46
2022-10-14T09:01:54.877Z,73.80
2022-10-14T09:04:22.917Z,73.77
2022-10-14T09:06:53.117Z,73.39
2022-10-14T09:09:26.100Z,73.14
2022-10-14T09:11:57.897Z,73.12
2022-10-14T09:14:35.056Z,73.17
2022-10-14T09:17:07.532Z,73.10
2022-10-14T09:19:42.923Z,72.98
2022-10-14T09:22:15.384Z,72.85
2022-10-14T09:24:46.117Z,73.41
2022-10-14T09:27:17.626Z,73.64
2022-10-14T09:29:51.584Z,73.35
2022-10-14T09:32:28.702Z,73.45
2022-10-14T09:34:58.226Z,73.56
2022-10-14T09:37:28.294Z,73.15
2022-10-14T09:40:00.521Z,73.10
2022-10-14T09:42:41.824Z,73.42
2022-10-14T09:45:14.895Z,73.41
2022-10-14T09:47:47.696Z,73.63
2022-10-14T09:50:25.232Z,73.53
2022-10-14T09:52:56.973Z,73.31
2022-10-14T09:55:25.503Z,73.25
2022-10-14T09:58:17.059Z,73.54
2022-10-14T10:00:47.341Z,73.56
2022-10-14T10:03:27.016Z,74.04
2022-10-14T10:06:04.559Z,74.01
2022-10-14T10:08:32.801Z,73.90
2022-10-14T10:11:06.729Z,74.26
2022-10-14T10:13:41.641Z,73.91
2022-10-14T10:16:21.117Z,74.04
2022-10-14T10:18:49.173Z,74.25
2022-10-14T10:21:20.128Z,73.78
2022-10-14T10:23:54.081Z,73.91
2022-10-14T10:26:26.546Z,74.03
2022-10-14T10:28:57.987Z,74.32
2022-10-14T10:31:43.601Z,74.75
2022-10-14T10:34:38.077Z,74.83
2022-10-14T10:37:19.313Z,74.62
2022-10-14T10:40:03.453Z,74.73
2022-10-14T10:42:40.595Z,74.78
2022-10-14T10:45:17.431Z,74.85
2022-10-14T10:47:53.241Z,75.35
2022-10-14T10:50:32.559Z,75.45
2022-10-14T10:53:18.406Z,75.41
2022-10-14T10:55:55.815Z,75.68
2022-10-14T10:58:38.992Z,75.53
2022-10-14T11:01:26.116Z,75.66
2022-10-14T11:04:16.485Z,75.67
2022-10-14T11:07:08.273Z,75.21
2022-10-14T11:10:14.174Z,75.54
2022-10-14T11:12:53.512Z,75.43
2022-10-14T11:15:33.468Z,75.34
2022-10-14T11:18:04.762Z,75.52
2022-10-14T11:20:44.782Z,75.85
2022-10-14T11:23:43.657Z,75.88
2022-10-14T11:26:26.643Z,75.78
2022-10-14T11:29:03.599Z,75.80
2022-10-14T11:31:40.471Z,76.00
2022-10-14T11:34:23.889Z,75.93
2022-10-14T11:37:04.201Z,76.50
2022-10-14T11:39:40.195Z,75.88
2022-10-14T11:42:27.034Z,76.25
2022-10-14T11:45:10.154Z,76.27
2022-10-14T11:47:42.124Z,76.46
2022-10-14T11:50:18.318Z,76.66
2022-10-14T11:53:02.613Z,76.67
2022-10-14T11:55:36.241Z,76.14
2022-10-14T11:58:11.640Z,76.35
2022-10-14T12:00:44.727Z,76.54
2022-10-14T12:03:18.204Z,76.28
2022-10-14T12:05:50.061Z,76.44
2022-10-14T12:08:28.411Z,76.47
2022-10-14T12:11:04.175Z,76.58
2022-10-14T12:13:37.439Z,76.78
2022-10-14T12:16:11.396Z,76.82
2022-10-14T12:18:39.530Z,76.56
2022-10-14T12:21:16.394Z,77.07
2022-10-14T12:23:50.908Z,76.95
2022-10-14T12:26:41.282Z,77.07
2022-10-14T12:29:14.318Z,76.74
2022-10-14T12:31:42.355Z,76.85
2022-10-14T12:34:28.682Z,77.24
2022-10-14T12:36:56.665Z,77.17
2022-10-14T12:39:35.979Z,77.44
2022-10-14T12:42:06.968Z,77.46
2022-10-14T12:44:43.460Z,77.22
2022-10-14T12:47:19.911Z,77.70
2022-10-14T12:49:50.520Z,77.67
2022-10-14T12:52:24.852Z,78.16
2022-10-14T12:54:54.514Z,78.10
2022-10-14T12:57:29.375Z,77.59
2022-10-14T13:00:00.454Z,77.36
2022-10-14T13:02:33.480Z,77.69
2022-10-14T13:05:04.048Z,77.43
2022-10-14T13:07:44.422Z,77.21
2022-10-14T13:10:48.509Z,77.41
2022-10-14T13:13:52.719Z,77.32
2022-10-14T13:17:03.231Z,77.30
2022-10-14T13:19:45.751Z,77.66
2022-10-14T13:22:36.739Z,77.70
2022-10-14T13:25:12.111Z,77.58
2022-10-14T13:28:00.626Z,77.46
2022-10-14T13:30:36.160Z,77.24
2022-10-14T13:33:13.434Z,77.28
2022-10-14T13:35:50.044Z,77.57
2022-10-14T13:38:20.350Z,77.61
2022-10-14T13:40:51.963Z,77.48
2022-10-14T13:43:26.798Z,77.93
2022-10-14T13:46:03.842Z,77.99
2022-10-14T13:48:34.541Z,77.89
2022-10-14T13:51:36.663Z,78.00
2022-10-14T13:54:17.472Z,78.48
2022-10-14T13:56:45.903Z,78.14
2022-10-14T13:59:44.338Z,78.36
2022-10-14T14:02:15.849Z,78.20
2022-10-14T14:04:51.778Z,78.55
2022-10-14T14:07:58.927Z,78.35
2022-10-14T14:10:13.352Z,78.21
2022-10-14T14:12:44.046Z,78.43
2022-10-14T14:15:20.819Z,78.36
2022-10-14T14:17:48.805Z,78.44
2022-10-14T14:20:21.369Z,78.49
2022-10-14T14:22:51.423Z,78.21
2022-10-14T14:25:34.852Z,78.51
2022-10-14T14:28:07.037Z,78.63
2022-10-14T14:30:39.640Z,79.01
2022-10-14T14:33:12.212Z,78.82
2022-10-14T14:35:41.721Z,79.22
2022-10-14T14:38:25.425Z,79.12
2022-10-14T14:41:06.846Z,79.53
2022-10-14T14:43:44.721Z,79.51
2022-10-14T14:46:20.756Z,79.26
2022-10-14T14:48:54.835Z,79.31
2022-10-14T14:51:23.628Z,79.63
2022-10-14T14:53:54.272Z,79.92
2022-10-14T14:56:27.395Z,80.00
2022-10-14T14:58:57.712Z,80.10
2022-10-14T15:01:28.917Z,80.24
2022-10-14T15:04:12.621Z,80.05
2022-10-14T15:06:50.767Z,80.62
2022-10-14T15:09:24.561Z,80.74
2022-10-14T15:11:55.215Z,80.70
2022-10-14T15:14:30.804Z,80.94
2022-10-14T15:17:01.153Z,81.04
2022-10-14T15:19:38.225Z,81.19
2022-10-14T15:22:12.770Z,81.11
2022-10-14T15:24:58.857Z,81.41
2022-10-14T15:27:46.365Z,81.53
2022-10-14T15:30:34.910Z,82.14
2022-10-14T15:33:15.011Z,81.72
2022-10-14T15:35:43.698Z,81.73
2022-10-14T15:38:16.209Z,81.77
2022-10-14T15:40:45.334Z,82.15
2022-10-14T15:43:17.584Z,82.01
2022-10-14T15:46:11.602Z,82.23
2022-10-14T15:48:41.981Z,82.55
2022-10-14T15:51:15.352Z,82.37
2022-10-14T15:53:43.561Z,82.34
2022-10-14T15:56:11.413Z,82.21
2022-10-14T15:58:40.126Z,82.08
2022-10-14T16:01:08.639Z,82.41
2022-10-14T16:03:40.874Z,81.99
2022-10-14T16:06:14.599Z,82.14
2022-10-14T16:08:43.136Z,82.00
2022-10-14T16:11:20.872Z,82.38
2022-10-14T16:13:48.747Z,82.36
2022-10-14T16:16:22.181Z,82.09
2022-10-14T16:18:50.302Z,81.60
2022-10-14T16:21:19.502Z,81.68
2022-10-14T16:23:47.353Z,81.80
2022-10-14T16:26:15.336Z,81.77
2022-10-14T16:28:43.230Z,82.21
2022-10-14T16:31:13.456Z,81.90
2022-10-14T16:33:44.744Z,82.02
2022-10-14T16:36:15.649Z,81.80
2022-10-14T16:38:45.220Z,81.54
2022-10-14T16:41:13.427Z,82.18
2022-10-14T16:43:41.348Z,82.35
2022-10-14T16:46:11.854Z,82.49
2022-10-14T16:48:42.634Z,82.66
2022-10-14T16:51:10.580Z,82.66
2022-10-14T16:53:46.667Z,82.72
2022-10-14T16:56:32.194Z,82.50
2022-10-14T16:59:01.005Z,82.93
2022-10-14T17:01:29.653Z,82.95
2022-10-14T17:03:58.157Z,82.96
2022-10-14T17:06:26.953Z,82.89
2022-10-14T17:08:55.002Z,82.92
2022-10-14T17:11:24.792Z,83.25
2022-10-14T17:13:53.765Z,82.92
2022-10-14T17:16:22.114Z,83.11
2022-10-14T17:18:50.443Z,82.90
2022-10-14T17:21:18.417Z,82.89
2022-10-14T17:23:46.589Z,82.52
2022-10-14T17:26:20.546Z,82.67
2022-10-14T17:28:50.556Z,82.50
2022-10-14T17:31:20.666Z,82.69
2022-10-14T17:33:48.626Z,82.61
2022-10-14T17:36:19.568Z,82.46
2022-10-14T17:38:48.650Z,82.58
2022-10-14T17:41:16.704Z,82.24
2022-10-14T17:43:45.863Z,82.44
2022-10-14T17:46:15.114Z,82.38
2022-10-14T17:48:43.563Z,82.36
2022-10-14T17:51:12.479Z,82.37
2022-10-14T17:53:41.322Z,82.28
2022-10-14T17:56:11.778Z,81.99
2022-10-14T17:58:39.774Z,81.83
2022-10-14T18:01:08.795Z,82.08
2022-10-14T18:03:41.996Z,82.43
2022-10-14T18:06:11.313Z,82.13
2022-10-14T18:08:40.313Z,82.10
2022-10-14T18:11:11.085Z,82.09
2022-10-14T18:16:10.478Z,81.47
2022-10-14T18:18:40.023Z,81.43
2022-10-14T18:21:08.513Z,81.39
2022-10-14T18:23:39.086Z,81.23
2022-10-14T18:26:13.253Z,80.73
2022-10-14T18:28:44.337Z,81.19
2022-10-14T18:31:14.189Z,81.16
2022-10-14T18:33:44.963Z,81.19
2022-10-14T18:36:15.450Z,81.18
2022-10-14T18:38:43.804Z,80.51
2022-10-14T18:41:13.650Z,80.77
2022-10-14T18:43:42.359Z,80.53
2022-10-14T18:46:14.148Z,80.41
2022-10-14T18:48:44.241Z,79.65
2022-10-14T18:51:12.940Z,79.66
2022-10-14T18:53:42.424Z,79.49
2022-10-14T18:56:15.296Z,79.31
2022-10-14T18:58:43.837Z,78.75
2022-10-14T19:01:12.562Z,78.71
2022-10-14T19:03:41.126Z,78.71
2022-10-14T19:06:12.570Z,78.44
2022-10-14T19:08:42.277Z,78.04
2022-10-14T19:11:16.188Z,78.31
2022-10-14T19:13:45.174Z,78.06
2022-10-14T19:16:16.985Z,78.13
2022-10-14T19:18:44.858Z,77.92
2022-10-14T19:21:16.229Z,77.50
2022-10-14T19:23:45.073Z,77.78
2022-10-14T19:28:43.687Z,78.01
2022-10-14T19:31:13.356Z,77.91
2022-10-14T19:33:43.232Z,77.85
2022-10-14T19:36:12.152Z,77.40
2022-10-14T19:38:47.640Z,77.85
2022-10-14T19:41:15.450Z,77.51
2022-10-14T19:43:43.297Z,76.88
2022-10-14T19:46:13.356Z,77.02
2022-10-14T19:48:41.488Z,76.98
2022-10-14T19:51:10.172Z,76.97
2022-10-14T19:53:38.713Z,77.40
2022-10-14T19:56:10.138Z,77.47
2022-10-14T19:58:41.005Z,77.07
2022-10-14T20:01:14.208Z,77.63
2022-10-14T20:03:42.423Z,77.42
2022-10-14T20:06:11.357Z,77.08
2022-10-14T20:08:39.610Z,76.95
2022-10-14T20:11:12.850Z,76.89
2022-10-14T20:13:41.198Z,77.14
2022-10-14T20:16:10.519Z,77.39
2022-10-14T20:18:38.563Z,77.25
2022-10-14T20:21:08.283Z,77.79
2022-10-14T20:23:38.217Z,77.57
2022-10-14T20:26:09.583Z,77.70
2022-10-14T20:28:37.866Z,77.96
2022-10-14T20:31:08.497Z,78.06
2022-10-14T20:33:36.513Z,77.97
2022-10-14T20:36:07.238Z,77.97
2022-10-14T20:38:35.216Z,77.54
2022-10-14T20:41:08.754Z,77.72
2022-10-14T20:43:36.845Z,77.55
2022-10-14T20:46:04.920Z,77.00
2022-10-14T20:48:33.146Z,77.05
2022-10-14T20:51:00.986Z,76.83
2022-10-14T20:53:28.914Z,76.72
2022-10-14T20:56:02.779Z,76.82
2022-10-14T20:58:32.413Z,76.88
2022-10-14T21:01:08.168Z,77.06
2022-10-14T21:03:36.555Z,76.57
2022-10-14T21:06:05.905Z,76.49
2022-10-14T21:08:34.604Z,76.46
2022-10-14T21:11:07.019Z,76.94
2022-10-14T21:13:38.670Z,76.76
2022-10-14T21:16:14.123Z,76.75
2022-10-14T21:18:45.186Z,76.55
2022-10-14T21:21:16.538Z,76.37
2022-10-14T21:23:45.457Z,76.58
2022-10-14T21:26:13.327Z,76.38
2022-10-14T21:28:42.889Z,76.47
2022-10-14T21:31:13.690Z,76.63
2022-10-14T21:33:44.403Z,76.95
2022-10-14T21:36:15.209Z,76.80
2022-10-14T21:38:43.277Z,77.11
2022-10-14T21:41:11.863Z,76.84
2022-10-14T21:43:40.635Z,76.78
2022-10-14T21:46:12.693Z,77.10
2022-10-14T21:48:41.498Z,77.05
2022-10-14T21:51:11.423Z,76.95
2022-10-14T21:53:40.173Z,77.18
2022-10-14T21:56:08.847Z,76.98
2022-10-14T21:58:37.638Z,76.88
2022-10-14T22:01:07.716Z,76.59
2022-10-14T22:03:38.485Z,76.64
2022-10-14T22:06:08.823Z,76.76
2022-10-14T22:08:38.828Z,76.40
2022-10-14T22:11:07.619Z,76.46
2022-10-14T22:13:36.467Z,76.51
2022-10-14T22:16:04.424Z,76.75
2022-10-14T22:18:32.513Z,76.96
2022-10-14T22:21:05.287Z,76.85
2022-10-14T22:23:33.525Z,76.56
2022-10-14T22:26:02.490Z,76.13
2022-10-14T22:28:30.982Z,76.38
2022-10-14T22:31:05.300Z,76.24
2022-10-14T22:33:35.106Z,76.39
2022-10-14T22:36:09.071Z,76.20
2022-10-14T22:38:37.922Z,76.88
2022-10-14T22:41:07.114Z,76.71
2022-10-14T22:43:35.784Z,76.63
2022-10-14T22:46:06.114Z,76.37
2022-10-14T22:48:34.756Z,76.65
2022-10-14T22:51:04.174Z,76.38
2022-10-14T22:53:33.799Z,76.24
2022-10-14T22:56:02.025Z,76.46
2022-10-14T22:58:30.179Z,76.35
2022-10-14T23:01:05.766Z,76.22
2022-10-14T23:03:34.598Z,76.03
2022-10-14T23:06:03.563Z,75.80
2022-10-14T23:08:33.245Z,76.17
2022-10-14T23:11:01.791Z,76.40
2022-10-14T23:13:30.591Z,76.67
2022-10-14T23:16:00.246Z,76.63
2022-10-14T23:18:29.707Z,76.69
2022-10-14T23:20:57.656Z,76.99
2022-10-14T23:23:25.529Z,76.90
2022-10-14T23:25:54.743Z,77.01
2022-10-14T23:28:22.669Z,76.57
2022-10-14T23:30:50.562Z,77.01
2022-10-14T23:33:18.489Z,76.82
2022-10-14T23:35:46.336Z,76.46
2022-10-14T23:38:14.334Z,76.84
2022-10-14T23:40:42.296Z,77.00
2022-10-14T23:43:11.550Z,76.83
2022-10-14T23:45:39.437Z,76.25
2022-10-14T23:48:07.967Z,76.72
2022-10-14T23:50:35.778Z,76.56
2022-10-14T23:53:03.597Z,76.51
2022-10-14T23:55:31.547Z,77.01
2022-10-14T23:57:59.422Z,76.16
